Time;durP1;ratioP1;P1;durP2;ratioP2;P2;SDS_P1;SDS_P2;PMS_P1;PMS_P2;Temp;Humidity;BMP_temperature;BMP_pressure;BME280_temperature;BME280_humidity;BME280_pressure;Samples;Min_cycle;Max_cycle;Signal;HPM_P1;HPM_P2
2023/10/11 00:01:02;;;;;;;8.55;3.47;;;;;;;;;;5015790;28;20353;-31
2023/10/11 00:05:55;;;;;;;4.95;4.22;;;;;;;;;;5015710;28;20416;-28
2023/10/11 00:08:25;;;;;;;7.95;4.55;;;;;;;;;;4998653;28;20476;-29
2023/10/11 00:10:53;;;;;;;6.03;4.13;;;;;;;;;;5015587;28;20104;-29
2023/10/11 00:13:20;;;;;;;4.45;3.78;;;;;;;;;;4998329;28;20038;-29
2023/10/11 00:15:48;;;;;;;3.85;3.38;;;;;;;;;;5016041;28;20029;-28
2023/10/11 00:18:17;;;;;;;4.88;3.88;;;;;;;;;;5015964;28;20457;-29
2023/10/11 00:23:09;;;;;;;5.53;4.13;;;;;;;;;;5015265;28;20105;-29
2023/10/11 00:25:35;;;;;;;6.57;3.30;;;;;;;;;;5015345;28;20036;-32
2023/10/11 00:28:02;;;;;;;6.75;3.90;;;;;;;;;;5015562;28;20100;-30
2023/10/11 00:30:31;;;;;;;4.50;4.10;;;;;;;;;;5015164;28;20060;-26
2023/10/11 00:32:57;;;;;;;6.32;3.75;;;;;;;;;;5015364;28;20461;-27
2023/10/11 00:35:26;;;;;;;6.78;4.07;;;;;;;;;;5015435;28;20353;-31
2023/10/11 00:37:53;;;;;;;9.55;4.00;;;;;;;;;;5015128;28;20026;-27
2023/10/11 00:40:27;;;;;;;4.00;3.70;;;;;;;;;;5015416;28;20054;-26
2023/10/11 00:42:53;;;;;;;4.00;3.60;;;;;;;;;;5014537;28;20087;-30
2023/10/11 00:45:23;;;;;;;5.65;4.30;;;;;;;;;;5015053;28;20033;-29
2023/10/11 00:47:53;;;;;;;4.10;3.10;;;;;;;;;;5015291;28;20180;-28
2023/10/11 00:50:21;;;;;;;3.88;3.50;;;;;;;;;;4997760;28;20479;-28
2023/10/11 00:52:48;;;;;;;5.90;3.53;;;;;;;;;;5014816;28;20457;-24
2023/10/11 00:55:22;;;;;;;5.32;4.07;;;;;;;;;;5014938;28;20018;-27
2023/10/11 00:57:49;;;;;;;4.50;3.40;;;;;;;;;;5014887;28;20080;-31
2023/10/11 01:00:23;;;;;;;4.97;4.47;;;;;;;;;;5015150;28;20041;-32
2023/10/11 01:02:53;;;;;;;3.47;3.08;;;;;;;;;;5015138;28;20361;-27
2023/10/11 01:05:19;;;;;;;4.68;3.55;;;;;;;;;;5014717;28;20107;-31
2023/10/11 01:07:46;;;;;;;5.93;3.15;;;;;;;;;;5014840;28;20033;-30
2023/10/11 01:10:13;;;;;;;6.90;3.80;;;;;;;;;;5014816;28;20022;-28
2023/10/11 01:12:39;;;;;;;3.65;3.35;;;;;;;;;;5014658;28;20406;-28
2023/10/11 01:15:12;;;;;;;6.68;3.47;;;;;;;;;;5014733;28;20018;-28
2023/10/11 01:17:39;;;;;;;6.28;3.15;;;;;;;;;;5015026;28;20022;-30
2023/10/11 01:20:15;;;;;;;5.45;3.45;;;;;;;;;;5015236;28;20022;-31
2023/10/11 01:22:42;;;;;;;6.88;3.90;;;;;;;;;;5014913;28;20036;-30
2023/10/11 01:25:08;;;;;;;4.28;3.70;;;;;;;;;;5014685;28;20026;-28
2023/10/11 01:27:36;;;;;;;4.50;3.40;;;;;;;;;;5014919;28;20030;-28
2023/10/11 01:30:07;;;;;;;5.03;4.10;;;;;;;;;;5015408;28;20073;-25
2023/10/11 01:32:42;;;;;;;6.78;3.90;;;;;;;;;;5015503;28;20034;-28
2023/10/11 01:35:13;;;;;;;6.35;2.92;;;;;;;;;;5015157;28;20022;-27
2023/10/11 01:37:43;;;;;;;6.50;3.70;;;;;;;;;;5014865;28;20018;-29
2023/10/11 01:40:20;;;;;;;5.15;3.35;;;;;;;;;;5014525;28;20030;-28
2023/10/11 01:42:49;;;;;;;4.93;3.40;;;;;;;;;;5014712;28;20029;-28
2023/10/11 01:45:19;;;;;;;6.38;3.75;;;;;;;;;;5014746;28;20171;-27
2023/10/11 01:47:46;;;;;;;4.45;3.67;;;;;;;;;;5014457;28;20030;-28
2023/10/11 01:50:16;;;;;;;3.53;3.15;;;;;;;;;;5014462;28;20048;-30
2023/10/11 01:52:43;;;;;;;4.57;3.58;;;;;;;;;;5014285;28;20025;-27
2023/10/11 01:55:16;;;;;;;6.80;3.60;;;;;;;;;;5016797;28;20022;-32
2023/10/11 01:57:45;;;;;;;5.22;4.25;;;;;;;;;;5018123;28;20018;-27
2023/10/11 02:00:14;;;;;;;6.05;4.18;;;;;;;;;;5018004;28;20018;-26
2023/10/11 02:02:55;;;;;;;9.73;5.07;;;;;;;;;;5017870;28;20096;-32
2023/10/11 02:05:22;;;;;;;5.18;4.10;;;;;;;;;;5017804;28;20068;-28
2023/10/11 02:07:48;;;;;;;4.95;3.75;;;;;;;;;;5017879;28;20450;-28
2023/10/11 02:10:14;;;;;;;5.22;3.33;;;;;;;;;;5017841;28;20041;-28
2023/10/11 02:12:47;;;;;;;3.35;3.05;;;;;;;;;;5017803;28;20057;-28
2023/10/11 02:15:21;;;;;;;3.88;3.25;;;;;;;;;;5018347;28;20437;-30
2023/10/11 02:17:54;;;;;;;4.75;4.00;;;;;;;;;;5017668;28;20038;-27
2023/10/11 02:20:23;;;;;;;3.47;3.15;;;;;;;;;;5017976;28;20113;-27
2023/10/11 02:22:53;;;;;;;4.68;3.30;;;;;;;;;;5017848;28;20338;-30
2023/10/11 02:25:24;;;;;;;4.65;4.25;;;;;;;;;;5017541;28;20033;-26
2023/10/11 02:27:51;;;;;;;5.88;3.70;;;;;;;;;;5017838;28;20101;-26
2023/10/11 02:30:22;;;;;;;3.50;3.20;;;;;;;;;;5017437;28;20029;-25
2023/10/11 02:32:52;;;;;;;4.15;3.80;;;;;;;;;;5017240;28;20030;-27
2023/10/11 02:35:19;;;;;;;5.47;3.50;;;;;;;;;;5017305;28;20030;-29
2023/10/11 02:37:48;;;;;;;4.13;3.72;;;;;;;;;;5017575;28;20030;-29
2023/10/11 02:40:22;;;;;;;4.07;3.17;;;;;;;;;;5017236;28;20101;-27
2023/10/11 02:42:49;;;;;;;4.32;3.70;;;;;;;;;;5017738;28;20088;-29
2023/10/11 02:45:21;;;;;;;3.53;3.20;;;;;;;;;;5017191;28;20109;-32
2023/10/11 02:47:47;;;;;;;4.50;3.95;;;;;;;;;;5017454;28;20029;-30
2023/10/11 02:50:13;;;;;;;4.38;3.97;;;;;;;;;;5017406;28;20453;-30
2023/10/11 02:52:41;;;;;;;6.35;3.67;;;;;;;;;;5017101;28;20041;-29
2023/10/11 02:55:27;;;;;;;4.43;3.95;;;;;;;;;;5017288;28;20464;-31
2023/10/11 02:58:08;;;;;;;4.32;3.60;;;;;;;;;;5017270;28;20034;-29
2023/10/11 03:00:43;;;;;;;4.03;3.58;;;;;;;;;;5017259;28;20480;-26
2023/10/11 03:03:15;;;;;;;3.55;3.05;;;;;;;;;;5016809;28;20053;-30
2023/10/11 03:05:41;;;;;;;5.15;3.60;;;;;;;;;;5016343;28;20057;-28
2023/10/11 03:08:14;;;;;;;5.25;4.75;;;;;;;;;;5017285;28;20026;-30
2023/10/11 03:10:43;;;;;;;3.65;3.35;;;;;;;;;;5016988;28;20106;-30
2023/10/11 03:13:19;;;;;;;3.63;3.30;;;;;;;;;;5016646;28;20030;-28
2023/10/11 03:15:54;;;;;;;4.40;3.60;;;;;;;;;;5017198;28;20018;-27
2023/10/11 03:18:31;;;;;;;5.15;3.50;;;;;;;;;;5016513;28;20026;-30
2023/10/11 03:21:09;;;;;;;4.20;3.50;;;;;;;;;;5017072;28;20433;-29
2023/10/11 03:23:37;;;;;;;3.70;3.20;;;;;;;;;;5016387;28;20081;-25
2023/10/11 03:26:16;;;;;;;3.70;3.38;;;;;;;;;;5016325;28;20029;-30
2023/10/11 03:28:43;;;;;;;3.30;2.97;;;;;;;;;;5016626;28;20041;-26
2023/10/11 03:31:12;;;;;;;3.47;3.17;;;;;;;;;;5016562;28;20396;-29
2023/10/11 03:33:40;;;;;;;4.30;3.50;;;;;;;;;;5016075;28;20042;-26
2023/10/11 03:36:17;;;;;;;4.53;4.15;;;;;;;;;;5016455;28;20022;-29
2023/10/11 03:38:51;;;;;;;3.35;2.95;;;;;;;;;;5016426;28;20145;-29
2023/10/11 03:41:17;;;;;;;4.22;3.00;;;;;;;;;;5016367;28;20033;-28
2023/10/11 03:43:45;;;;;;;4.05;3.65;;;;;;;;;;5015957;28;20052;-30
2023/10/11 03:46:15;;;;;;;4.88;3.60;;;;;;;;;;5016281;28;20438;-27
2023/10/11 03:48:44;;;;;;;5.55;3.60;;;;;;;;;;5015987;28;20022;-31
2023/10/11 03:51:19;;;;;;;5.35;3.97;;;;;;;;;;4998619;28;20373;-29
2023/10/11 03:53:47;;;;;;;4.13;3.45;;;;;;;;;;5016047;28;20041;-29
2023/10/11 03:56:14;;;;;;;9.73;3.35;;;;;;;;;;5015774;28;20033;-28
2023/10/11 03:58:40;;;;;;;11.43;3.85;;;;;;;;;;5015781;28;20049;-27
2023/10/11 04:03:44;;;;;;;3.55;3.25;;;;;;;;;;5015475;28;21731;-27
2023/10/11 04:06:15;;;;;;;6.90;4.40;;;;;;;;;;5015934;28;20121;-29
2023/10/11 04:08:54;;;;;;;6.28;4.60;;;;;;;;;;5015820;28;20445;-26
2023/10/11 04:11:30;;;;;;;10.02;3.92;;;;;;;;;;5015438;28;20038;-27
2023/10/11 04:13:58;;;;;;;9.25;4.70;;;;;;;;;;4999703;28;20053;-29
2023/10/11 04:16:28;;;;;;;8.25;3.70;;;;;;;;;;5015129;28;20427;-31
2023/10/11 04:18:54;;;;;;;8.60;4.40;;;;;;;;;;5015490;28;20105;-32
2023/10/11 04:23:55;;;;;;;6.03;4.80;;;;;;;;;;5015231;28;20026;-31
2023/10/11 04:28:58;;;;;;;4.55;4.15;;;;;;;;;;5015099;28;20045;-31
2023/10/11 04:31:28;;;;;;;5.30;3.72;;;;;;;;;;4997733;28;20361;-28
2023/10/11 04:33:55;;;;;;;3.97;3.53;;;;;;;;;;5015064;28;20049;-30
2023/10/11 04:36:21;;;;;;;7.18;3.17;;;;;;;;;;5015519;28;20101;-29
2023/10/11 04:38:48;;;;;;;4.97;3.47;;;;;;;;;;5014821;28;20054;-28
2023/10/11 04:41:19;;;;;;;11.82;3.72;;;;;;;;;;5014904;28;20040;-31
2023/10/11 04:43:51;;;;;;;6.55;3.28;;;;;;;;;;5015088;28;20400;-29
2023/10/11 04:46:18;;;;;;;4.13;3.30;;;;;;;;;;5015151;28;20054;-30
2023/10/11 04:48:45;;;;;;;7.45;3.58;;;;;;;;;;5014770;28;20100;-28
2023/10/11 04:59:06;;;;;;;10.55;7.03;;;;;;;;;;5015005;28;20049;-27
2023/10/11 05:04:13;;;;;;;10.95;4.65;;;;;;;;;;5014569;28;20077;-26
2023/10/11 05:06:42;;;;;;;4.10;3.70;;;;;;;;;;5014923;28;20056;-25
2023/10/11 05:11:50;;;;;;;7.00;4.03;;;;;;;;;;5014678;28;20057;-29
2023/10/11 05:14:29;;;;;;;10.25;4.07;;;;;;;;;;5015046;28;20109;-28
2023/10/11 05:16:59;;;;;;;5.80;3.42;;;;;;;;;;5014624;28;20034;-31
2023/10/11 05:19:34;;;;;;;9.93;4.50;;;;;;;;;;5015019;28;20022;-31
2023/10/11 05:22:03;;;;;;;5.55;3.78;;;;;;;;;;5014421;28;20045;-35
2023/10/11 05:32:50;;;;;;;5.30;4.00;;;;;;;;;;5003127;28;20026;-31
2023/10/11 05:51:32;;;;;;;17.83;4.18;;;;;;;;;;5018897;28;20149;-33
2023/10/11 05:54:00;;;;;;;6.65;4.13;;;;;;;;;;5018177;28;20385;-29
2023/10/11 05:56:33;;;;;;;7.03;3.53;;;;;;;;;;5018484;28;20196;-29
2023/10/11 05:59:03;;;;;;;4.38;3.53;;;;;;;;;;5017947;28;20036;-27
2023/10/11 06:01:30;;;;;;;8.90;4.00;;;;;;;;;;5017843;28;20022;-30
2023/10/11 06:03:56;;;;;;;12.13;4.32;;;;;;;;;;5017449;28;20060;-30
2023/10/11 06:06:23;;;;;;;10.50;3.90;;;;;;;;;;5018363;28;20096;-29
2023/10/11 06:08:59;;;;;;;5.68;4.22;;;;;;;;;;5017753;28;20513;-31
2023/10/11 06:11:36;;;;;;;10.13;3.85;;;;;;;;;;5018211;28;20038;-29
2023/10/11 06:14:04;;;;;;;7.68;4.47;;;;;;;;;;5017432;28;20034;-28
2023/10/11 06:16:37;;;;;;;8.95;3.90;;;;;;;;;;5017449;28;20030;-27
2023/10/11 06:19:26;;;;;;;8.35;4.60;;;;;;;;;;5017746;28;20041;-31
2023/10/11 06:24:48;;;;;;;6.28;3.67;;;;;;;;;;5004275;28;20045;-30
2023/10/11 06:29:53;;;;;;;9.15;4.13;;;;;;;;;;5017219;28;20072;-29
2023/10/11 06:32:21;;;;;;;10.07;3.92;;;;;;;;;;4999878;28;20025;-29
2023/10/11 06:34:48;;;;;;;6.32;4.43;;;;;;;;;;5017073;28;20093;-32
2023/10/11 06:37:18;;;;;;;9.60;3.85;;;;;;;;;;5017311;28;20441;-26
2023/10/11 06:42:21;;;;;;;8.98;4.22;;;;;;;;;;5017009;28;20079;-30
2023/10/11 06:44:57;;;;;;;8.20;4.20;;;;;;;;;;5017301;28;20026;-32
2023/10/11 06:47:24;;;;;;;6.00;4.43;;;;;;;;;;5016937;28;20022;-30
2023/10/11 06:49:55;;;;;;;5.82;3.80;;;;;;;;;;5017007;28;20026;-29
2023/10/11 06:52:25;;;;;;;11.75;4.35;;;;;;;;;;5017122;28;20022;-27
2023/10/11 06:55:08;;;;;;;14.18;4.68;;;;;;;;;;5016825;28;20088;-39
2023/10/11 06:57:45;;;;;;;8.93;4.72;;;;;;;;;;5017237;28;20029;-34
2023/10/11 07:00:36;;;;;;;9.65;4.10;;;;;;;;;;5016698;28;20030;-31
2023/10/11 07:03:07;;;;;;;5.07;3.92;;;;;;;;;;5016855;28;20360;-30
2023/10/11 07:05:45;;;;;;;10.20;3.50;;;;;;;;;;5016515;28;20054;-29
2023/10/11 07:08:17;;;;;;;5.78;4.20;;;;;;;;;;5016854;28;20026;-29
2023/10/11 07:11:16;;;;;;;13.98;5.22;;;;;;;;;;5016542;28;20065;-28
2023/10/11 07:13:57;;;;;;;11.75;3.83;;;;;;;;;;5016497;28;20026;-31
2023/10/11 07:16:31;;;;;;;8.02;4.57;;;;;;;;;;5017216;28;20049;-31
2023/10/11 07:18:58;;;;;;;7.63;5.10;;;;;;;;;;5016860;28;20111;-30
2023/10/11 07:26:57;;;;;;;7.88;4.22;;;;;;;;;;5016819;28;20124;-31
2023/10/11 07:29:24;;;;;;;25.85;5.85;;;;;;;;;;5016289;28;20030;-32
2023/10/11 07:31:51;;;;;;;14.00;5.18;;;;;;;;;;5016079;28;20466;-28
2023/10/11 07:34:18;;;;;;;15.68;5.18;;;;;;;;;;5016273;28;20042;-28
2023/10/11 07:36:48;;;;;;;7.93;4.45;;;;;;;;;;5016139;28;20014;-28
2023/10/11 07:39:36;;;;;;;6.72;4.07;;;;;;;;;;5016375;28;20113;-28
2023/10/11 07:42:09;;;;;;;6.85;4.60;;;;;;;;;;5015555;28;20038;-29
2023/10/11 07:44:39;;;;;;;5.78;4.13;;;;;;;;;;5015903;28;20056;-26
2023/10/11 07:47:07;;;;;;;5.45;4.35;;;;;;;;;;5016422;28;20022;-27
2023/10/11 07:49:39;;;;;;;12.13;4.80;;;;;;;;;;5016358;28;20088;-30
2023/10/11 07:52:08;;;;;;;7.53;4.10;;;;;;;;;;5014955;28;20029;-28
2023/10/11 07:54:36;;;;;;;5.47;3.88;;;;;;;;;;5015900;28;20037;-33
2023/10/11 07:57:03;;;;;;;6.70;3.97;;;;;;;;;;5015989;28;20026;-31
2023/10/11 07:59:30;;;;;;;15.05;4.80;;;;;;;;;;5015700;28;20076;-31
2023/10/11 08:02:08;;;;;;;12.82;3.72;;;;;;;;;;5015762;28;20100;-31
2023/10/11 08:04:35;;;;;;;5.28;4.03;;;;;;;;;;5015563;28;20123;-33
2023/10/11 08:07:12;;;;;;;10.82;4.25;;;;;;;;;;5015502;28;20029;-28
2023/10/11 08:09:52;;;;;;;6.05;4.38;;;;;;;;;;5015444;28;20028;-29
2023/10/11 08:12:20;;;;;;;6.43;3.90;;;;;;;;;;5015643;28;20465;-30
2023/10/11 08:14:47;;;;;;;7.60;4.15;;;;;;;;;;5015719;28;20022;-32
2023/10/11 08:17:14;;;;;;;10.73;4.75;;;;;;;;;;5015583;28;20022;-28
2023/10/11 08:19:46;;;;;;;17.42;5.03;;;;;;;;;;5015270;28;20080;-31
2023/10/11 08:22:16;;;;;;;13.75;4.60;;;;;;;;;;5015388;28;20083;-28
2023/10/11 08:24:46;;;;;;;6.55;3.97;;;;;;;;;;5015888;28;20400;-26
2023/10/11 08:27:13;;;;;;;5.93;4.13;;;;;;;;;;5015613;28;20026;-34
2023/10/11 08:29:42;;;;;;;11.00;5.07;;;;;;;;;;5015260;28;20049;-30
2023/10/11 08:32:12;;;;;;;11.32;4.80;;;;;;;;;;5015677;28;20057;-29
2023/10/11 08:34:43;;;;;;;6.07;4.18;;;;;;;;;;4998185;28;20030;-32
2023/10/11 08:37:09;;;;;;;19.73;5.18;;;;;;;;;;5015016;28;20030;-27
2023/10/11 08:39:36;;;;;;;6.13;4.45;;;;;;;;;;5015266;28;20022;-26
2023/10/11 08:42:08;;;;;;;14.02;4.75;;;;;;;;;;5014801;28;20092;-31
2023/10/11 08:44:34;;;;;;;9.20;4.82;;;;;;;;;;5015488;28;20046;-28
2023/10/11 08:47:06;;;;;;;11.60;5.13;;;;;;;;;;5014934;28;20026;-32
2023/10/11 08:49:54;;;;;;;7.35;4.60;;;;;;;;;;5014649;28;20026;-33
2023/10/11 08:52:20;;;;;;;8.30;4.32;;;;;;;;;;5014851;28;20037;-29
2023/10/11 08:54:47;;;;;;;8.90;4.95;;;;;;;;;;5014819;28;20357;-29
2023/10/11 08:57:14;;;;;;;8.02;4.57;;;;;;;;;;5014669;28;20441;-30
2023/10/11 08:59:50;;;;;;;10.25;4.75;;;;;;;;;;5014715;28;20156;-29
2023/10/11 09:02:17;;;;;;;7.30;4.60;;;;;;;;;;5014463;28;20030;-26
2023/10/11 09:07:47;;;;;;;12.85;4.45;;;;;;;;;;5014979;28;20397;-29
2023/10/11 09:10:25;;;;;;;8.82;4.88;;;;;;;;;;5015137;28;20030;-34
2023/10/11 09:12:56;;;;;;;14.73;4.60;;;;;;;;;;5014406;28;20461;-31
2023/10/11 09:15:42;;;;;;;9.35;5.82;;;;;;;;;;5014851;28;20034;-34
2023/10/11 09:18:15;;;;;;;11.57;4.70;;;;;;;;;;5014516;28;20026;-30
2023/10/11 09:20:43;;;;;;;13.00;4.70;;;;;;;;;;5014730;28;20014;-26
2023/10/11 09:23:11;;;;;;;28.05;5.60;;;;;;;;;;5014719;28;20064;-28
2023/10/11 09:26:02;;;;;;;8.57;5.68;;;;;;;;;;5014983;28;20399;-30
2023/10/11 09:28:33;;;;;;;5.82;4.50;;;;;;;;;;5014472;28;20041;-26
2023/10/11 09:31:10;;;;;;;13.38;6.43;;;;;;;;;;5014705;28;20327;-29
2023/10/11 09:33:38;;;;;;;12.88;4.82;;;;;;;;;;5014179;28;20050;-29
2023/10/11 09:36:06;;;;;;;16.73;5.40;;;;;;;;;;5014353;28;20022;-28
2023/10/11 09:38:39;;;;;;;17.52;6.38;;;;;;;;;;5014489;28;20026;-29
2023/10/11 09:41:08;;;;;;;22.60;6.30;;;;;;;;;;5014319;28;20039;-33
2023/10/11 09:43:44;;;;;;;14.25;5.22;;;;;;;;;;5014641;28;20357;-26
2023/10/11 09:46:11;;;;;;;20.20;6.28;;;;;;;;;;5015117;28;20135;-32
2023/10/11 09:48:43;;;;;;;17.85;6.43;;;;;;;;;;5014152;28;20036;-29
2023/10/11 09:51:17;;;;;;;14.52;5.50;;;;;;;;;;5014499;28;20022;-31
2023/10/11 09:53:49;;;;;;;12.25;5.78;;;;;;;;;;5014375;28;20037;-29
2023/10/11 09:56:35;;;;;;;19.13;5.38;;;;;;;;;;5014247;28;20369;-32
2023/10/11 09:59:22;;;;;;;12.98;4.78;;;;;;;;;;5014125;28;20022;-28
2023/10/11 10:01:49;;;;;;;15.18;4.75;;;;;;;;;;5013951;28;20097;-31
2023/10/11 10:04:15;;;;;;;11.00;4.95;;;;;;;;;;4993288;28;20054;-30
2023/10/11 10:07:03;;;;;;;8.07;4.68;;;;;;;;;;4993487;28;20085;-26
2023/10/11 10:09:52;;;;;;;8.13;4.60;;;;;;;;;;4994170;28;20034;-28
2023/10/11 10:12:22;;;;;;;8.80;5.70;;;;;;;;;;4994340;28;20030;-37
2023/10/11 10:15:01;;;;;;;13.75;5.60;;;;;;;;;;4994758;28;20092;-30
2023/10/11 10:17:28;;;;;;;15.55;4.38;;;;;;;;;;4998284;28;20178;-33
2023/10/11 10:20:00;;;;;;;11.15;4.93;;;;;;;;;;4997922;28;20477;-25
2023/10/11 10:22:31;;;;;;;13.13;5.03;;;;;;;;;;4998163;28;20412;-27
2023/10/11 10:24:57;;;;;;;;;;;;;;;;;;4998642;28;20019;-29
2023/10/11 10:27:45;;;;;;;10.50;5.55;;;;;;;;;;4998308;28;20244;-27
2023/10/11 10:30:17;;;;;;;8.02;4.75;;;;;;;;;;4997689;28;20106;-25
2023/10/11 10:33:02;;;;;;;11.57;5.85;;;;;;;;;;4997732;28;20050;-26
2023/10/11 10:35:36;;;;;;;7.20;5.25;;;;;;;;;;4998002;28;20346;-29
2023/10/11 10:38:04;;;;;;;13.50;5.80;;;;;;;;;;4997860;28;20353;-29
2023/10/11 10:40:30;;;;;;;8.45;5.57;;;;;;;;;;4997511;28;20028;-31
2023/10/11 10:43:41;;;;;;;17.10;5.18;;;;;;;;;;4997868;28;20026;-31
2023/10/11 10:46:04;;;;;;;12.20;5.45;;;;;;;;;;4994672;28;20089;-29
2023/10/11 10:48:39;;;;;;;9.38;5.40;;;;;;;;;;4997386;28;20106;-30
2023/10/11 10:51:05;;;;;;;13.43;5.65;;;;;;;;;;4997303;28;20050;-29
2023/10/11 10:53:38;;;;;;;10.00;5.22;;;;;;;;;;4998162;28;20097;-29
2023/10/11 10:56:04;;;;;;;18.10;4.90;;;;;;;;;;4997971;28;20350;-26
2023/10/11 10:58:30;;;;;;;14.40;5.75;;;;;;;;;;4997216;28;20018;-30
2023/10/11 11:00:59;;;;;;;14.18;5.70;;;;;;;;;;4997800;28;20033;-31
2023/10/11 11:03:32;;;;;;;10.35;4.97;;;;;;;;;;4998078;28;20035;-30
2023/10/11 11:06:01;;;;;;;13.60;5.30;;;;;;;;;;4997188;28;20588;-29
2023/10/11 11:08:28;;;;;;;8.02;4.35;;;;;;;;;;4997107;28;20041;-28
2023/10/11 11:10:55;;;;;;;11.00;5.75;;;;;;;;;;4997369;28;20034;-29
2023/10/11 11:13:22;;;;;;;18.15;6.55;;;;;;;;;;4996911;28;20109;-34
2023/10/11 11:15:55;;;;;;;13.05;4.95;;;;;;;;;;4997250;28;20353;-27
2023/10/11 11:18:33;;;;;;;8.15;4.47;;;;;;;;;;4996909;28;20057;-27
2023/10/11 11:21:25;;;;;;;7.22;3.88;;;;;;;;;;4995848;28;20041;-32
2023/10/11 11:23:52;;;;;;;7.65;4.85;;;;;;;;;;4995744;28;20125;-31
2023/10/11 11:26:21;;;;;;;11.95;5.07;;;;;;;;;;4996334;28;20046;-30
2023/10/11 11:28:51;;;;;;;9.40;6.07;;;;;;;;;;4996596;28;20034;-29
2023/10/11 11:34:07;;;;;;;8.35;4.90;;;;;;;;;;4997106;28;20030;-28
2023/10/11 11:36:35;;;;;;;11.73;4.40;;;;;;;;;;4996568;28;20034;-26
2023/10/11 11:39:17;;;;;;;6.38;4.13;;;;;;;;;;4996987;28;20379;-31
2023/10/11 11:41:52;;;;;;;7.60;4.55;;;;;;;;;;4996767;28;20041;-30
2023/10/11 11:44:22;;;;;;;6.43;4.85;;;;;;;;;;4996397;28;20088;-28
2023/10/11 11:46:52;;;;;;;9.30;5.50;;;;;;;;;;4996303;28;20373;-28
2023/10/11 11:49:26;;;;;;;10.23;5.33;;;;;;;;;;4996613;28;20046;-30
2023/10/11 11:51:55;;;;;;;10.98;5.72;;;;;;;;;;4996107;28;20258;-30
2023/10/11 11:54:23;;;;;;;6.35;4.60;;;;;;;;;;4995948;28;20038;-26
2023/10/11 11:56:54;;;;;;;9.90;5.50;;;;;;;;;;4996062;28;20081;-31
2023/10/11 11:59:25;;;;;;;13.25;5.75;;;;;;;;;;4995969;28;20030;-27
2023/10/11 12:01:56;;;;;;;10.85;6.45;;;;;;;;;;4996243;28;20057;-34
2023/10/11 12:04:29;;;;;;;12.20;5.70;;;;;;;;;;5003377;28;20128;-32
2023/10/11 12:06:59;;;;;;;9.55;5.90;;;;;;;;;;5016152;28;20104;-30
2023/10/11 12:09:31;;;;;;;11.43;6.28;;;;;;;;;;5015517;28;20026;-33
2023/10/11 12:12:09;;;;;;;14.55;6.00;;;;;;;;;;5015542;28;20108;-34
2023/10/11 12:14:38;;;;;;;11.18;5.82;;;;;;;;;;5015592;28;20030;-34
2023/10/11 12:17:11;;;;;;;11.85;6.38;;;;;;;;;;5015679;28;20032;-32
2023/10/11 12:19:38;;;;;;;10.55;5.95;;;;;;;;;;5015808;28;20029;-29
2023/10/11 12:22:05;;;;;;;10.02;7.03;;;;;;;;;;5015277;28;20034;-29
2023/10/11 12:24:32;;;;;;;12.52;5.63;;;;;;;;;;5015306;28;20085;-27
2023/10/11 12:26:59;;;;;;;16.92;6.43;;;;;;;;;;5015867;28;20084;-28
2023/10/11 12:29:28;;;;;;;11.80;6.45;;;;;;;;;;5015212;28;20036;-33
2023/10/11 12:31:55;;;;;;;12.18;6.20;;;;;;;;;;5015374;28;20033;-30
2023/10/11 12:34:27;;;;;;;8.90;6.22;;;;;;;;;;5015190;28;20080;-32
2023/10/11 12:36:54;;;;;;;11.05;5.95;;;;;;;;;;5015331;28;20036;-26
2023/10/11 12:39:20;;;;;;;9.68;5.85;;;;;;;;;;5014610;28;20029;-28
2023/10/11 12:41:49;;;;;;;21.55;6.30;;;;;;;;;;5015715;28;20025;-25
2023/10/11 12:44:15;;;;;;;8.43;6.50;;;;;;;;;;5015120;28;20412;-32
2023/10/11 12:46:41;;;;;;;11.43;5.85;;;;;;;;;;5014957;28;20037;-30
2023/10/11 12:49:14;;;;;;;12.25;5.97;;;;;;;;;;5014970;28;20488;-27
2023/10/11 12:51:44;;;;;;;14.00;6.45;;;;;;;;;;5014975;28;20029;-26
2023/10/11 12:54:11;;;;;;;16.00;6.25;;;;;;;;;;5015305;28;20367;-31
2023/10/11 12:56:38;;;;;;;16.42;5.78;;;;;;;;;;5015112;28;20097;-31
2023/10/11 12:59:12;;;;;;;11.60;6.22;;;;;;;;;;5014818;28;20026;-29
2023/10/11 13:01:49;;;;;;;14.75;6.43;;;;;;;;;;5014654;28;20105;-32
2023/10/11 13:04:23;;;;;;;11.35;5.53;;;;;;;;;;5014511;28;20058;-33
2023/10/11 13:06:50;;;;;;;14.45;6.38;;;;;;;;;;5014946;28;20409;-32
2023/10/11 13:09:21;;;;;;;12.50;5.80;;;;;;;;;;5014776;28;20060;-28
2023/10/11 13:11:47;;;;;;;10.90;6.03;;;;;;;;;;5014808;28;20465;-33
2023/10/11 13:14:20;;;;;;;11.18;5.55;;;;;;;;;;5014583;28;20117;-26
2023/10/11 13:17:12;;;;;;;9.95;5.65;;;;;;;;;;5015279;28;20064;-30
2023/10/11 13:19:38;;;;;;;;;;;;;;;;;;5015050;28;20029;-30
2023/10/11 13:22:09;;;;;;;11.75;5.95;;;;;;;;;;5015278;28;19909;-27
2023/10/11 13:24:36;;;;;;;13.85;6.65;;;;;;;;;;4997321;28;20069;-27
2023/10/11 13:27:03;;;;;;;11.25;5.68;;;;;;;;;;5014573;28;20026;-28
2023/10/11 13:29:29;;;;;;;16.65;5.97;;;;;;;;;;5014786;28;20381;-28
2023/10/11 13:31:56;;;;;;;8.38;5.60;;;;;;;;;;5014472;28;20107;-28
2023/10/11 13:34:29;;;;;;;9.93;6.28;;;;;;;;;;5014446;28;20026;-28
2023/10/11 13:36:58;;;;;;;15.60;6.13;;;;;;;;;;5014454;28;20022;-30
2023/10/11 13:39:25;;;;;;;21.30;6.38;;;;;;;;;;5014973;28;20032;-33
2023/10/11 13:41:52;;;;;;;18.20;6.30;;;;;;;;;;5014689;28;20018;-30
2023/10/11 13:44:19;;;;;;;11.32;7.22;;;;;;;;;;5014625;28;20045;-33
2023/10/11 13:46:51;;;;;;;10.10;6.35;;;;;;;;;;5014760;28;20093;-29
2023/10/11 13:49:24;;;;;;;8.45;5.38;;;;;;;;;;5015464;28;20429;-31
2023/10/11 13:51:51;;;;;;;20.23;5.93;;;;;;;;;;5018141;28;20022;-29
2023/10/11 13:54:31;;;;;;;16.15;5.60;;;;;;;;;;5018056;28;20056;-28
2023/10/11 13:56:58;;;;;;;12.80;6.20;;;;;;;;;;5018070;28;20022;-30
2023/10/11 13:59:25;;;;;;;12.05;6.32;;;;;;;;;;5018490;28;20516;-29
2023/10/11 14:05:13;;;;;;;6.85;5.70;;;;;;;;;;5017802;28;20061;-29
2023/10/11 14:07:23;;;;;;;15.65;6.57;;;;;;;;;;5009797;28;20033;-28
2023/10/11 14:09:53;;;;;;;11.68;6.45;;;;;;;;;;5018434;28;20026;-30
2023/10/11 14:12:19;;;;;;;15.18;6.22;;;;;;;;;;5017845;28;20522;-32
2023/10/11 14:14:46;;;;;;;14.80;6.10;;;;;;;;;;5017689;28;20121;-25
2023/10/11 14:17:15;;;;;;;9.35;5.80;;;;;;;;;;5018258;28;20037;-29
2023/10/11 14:19:45;;;;;;;13.30;6.07;;;;;;;;;;5017696;28;20031;-26
2023/10/11 14:22:12;;;;;;;8.00;5.88;;;;;;;;;;5017813;28;20018;-29
2023/10/11 14:24:38;;;;;;;9.00;6.28;;;;;;;;;;5017552;28;20033;-29
2023/10/11 14:27:05;;;;;;;7.60;5.60;;;;;;;;;;5017805;28;20026;-26
2023/10/11 14:29:31;;;;;;;9.77;6.00;;;;;;;;;;5000975;28;20457;-26
2023/10/11 14:32:01;;;;;;;15.70;5.85;;;;;;;;;;5017403;28;20405;-31
2023/10/11 14:34:28;;;;;;;6.90;5.93;;;;;;;;;;5017585;28;20412;-30
2023/10/11 14:36:54;;;;;;;11.35;5.70;;;;;;;;;;5017228;28;20018;-27
2023/10/11 14:39:22;;;;;;;9.43;6.00;;;;;;;;;;5017472;28;20357;-31
2023/10/11 14:41:52;;;;;;;12.18;6.05;;;;;;;;;;5017052;28;20049;-31
2023/10/11 14:44:18;;;;;;;12.45;5.82;;;;;;;;;;5017404;28;20021;-28
2023/10/11 14:46:47;;;;;;;9.18;5.80;;;;;;;;;;5017146;28;20029;-28
2023/10/11 14:49:14;;;;;;;10.23;5.68;;;;;;;;;;5016947;28;20038;-31
2023/10/11 14:51:41;;;;;;;13.30;6.47;;;;;;;;;;5017061;28;20026;-29
2023/10/11 14:54:07;;;;;;;10.23;6.65;;;;;;;;;;5017204;28;20026;-31
2023/10/11 14:56:35;;;;;;;11.88;5.35;;;;;;;;;;5018347;28;20152;-32
2023/10/11 14:59:03;;;;;;;9.98;5.82;;;;;;;;;;5017734;28;20026;-33
2023/10/11 15:01:33;;;;;;;8.68;6.03;;;;;;;;;;5016222;28;20025;-29
2023/10/11 15:04:09;;;;;;;11.52;5.68;;;;;;;;;;5016816;28;20141;-29
2023/10/11 15:06:39;;;;;;;8.55;6.20;;;;;;;;;;5017056;28;20368;-32
2023/10/11 15:09:09;;;;;;;9.63;4.88;;;;;;;;;;5016980;28;20038;-27
2023/10/11 15:11:35;;;;;;;11.38;5.97;;;;;;;;;;5016676;28;20021;-33
2023/10/11 15:14:03;;;;;;;8.63;5.80;;;;;;;;;;5016765;28;20057;-28
2023/10/11 15:16:32;;;;;;;13.38;5.85;;;;;;;;;;5016535;28;20026;-27
2023/10/11 15:18:58;;;;;;;6.90;4.70;;;;;;;;;;5016557;28;20022;-29
2023/10/11 15:21:25;;;;;;;12.88;5.10;;;;;;;;;;5017032;28;20041;-30
2023/10/11 15:23:51;;;;;;;8.50;5.13;;;;;;;;;;4999129;28;20527;-27
2023/10/11 15:26:19;;;;;;;8.00;5.22;;;;;;;;;;5016409;28;20080;-29
2023/10/11 15:28:46;;;;;;;9.65;5.55;;;;;;;;;;5016367;28;20076;-28
2023/10/11 15:31:12;;;;;;;11.43;5.13;;;;;;;;;;5016594;28;20084;-26
2023/10/11 15:33:38;;;;;;;9.20;5.53;;;;;;;;;;5016042;28;20037;-26
2023/10/11 15:36:08;;;;;;;6.65;5.80;;;;;;;;;;5016467;28;20026;-27
2023/10/11 15:38:34;;;;;;;7.15;6.15;;;;;;;;;;5016440;28;20445;-29
2023/10/11 15:41:04;;;;;;;5.57;5.07;;;;;;;;;;5016136;28;20446;-30
2023/10/11 15:43:34;;;;;;;9.70;5.68;;;;;;;;;;5015982;28;20041;-26
2023/10/11 15:46:04;;;;;;;11.32;6.10;;;;;;;;;;5016305;28;20136;-30
2023/10/11 15:48:30;;;;;;;7.20;5.50;;;;;;;;;;5016297;28;20101;-29
2023/10/11 15:51:04;;;;;;;7.82;5.40;;;;;;;;;;5016551;28;20029;-27
2023/10/11 15:53:32;;;;;;;8.93;5.30;;;;;;;;;;5016101;28;20032;-31
2023/10/11 15:56:01;;;;;;;7.18;5.95;;;;;;;;;;5016152;28;20349;-32
2023/10/11 15:58:27;;;;;;;8.98;4.80;;;;;;;;;;5015797;28;20022;-26
2023/10/11 16:00:54;;;;;;;6.88;5.68;;;;;;;;;;5016015;28;20029;-26
2023/10/11 16:03:24;;;;;;;10.18;5.20;;;;;;;;;;5016271;28;20052;-26
2023/10/11 16:05:51;;;;;;;10.05;6.47;;;;;;;;;;5015550;28;20473;-31
2023/10/11 16:08:17;;;;;;;9.02;5.60;;;;;;;;;;5015691;28;20437;-29
2023/10/11 16:10:43;;;;;;;6.63;5.78;;;;;;;;;;5015879;28;20112;-28